createdAt,value
2022-11-28T00:24:42.195Z,2.30
2022-11-28T00:54:50.671Z,2.20
2022-11-28T01:25:01.890Z,2.20
2022-11-28T01:55:12.694Z,2.40
2022-11-28T02:25:47.596Z,2.50
2022-11-28T02:55:55.918Z,2.50
2022-11-28T03:26:08.427Z,2.40
2022-11-28T03:56:20.128Z,2.10
2022-11-28T04:26:34.286Z,1.90
2022-11-28T04:56:46.787Z,1.20
2022-11-28T05:26:54.996Z,0.60
2022-11-28T05:57:06.532Z,0.20
2022-11-28T06:27:15.352Z,0.10
2022-11-28T06:57:23.962Z,0.10
2022-11-28T07:27:34.448Z,0.90
2022-11-28T07:57:45.876Z,1.50
2022-11-28T08:28:00.349Z,2.20
2022-11-28T08:58:11.003Z,3.10
2022-11-28T09:28:19.358Z,16.20
2022-11-28T09:58:31.093Z,15.70
2022-11-28T10:28:41.476Z,16.60
2022-11-28T10:58:56.189Z,16.40
2022-11-28T11:29:05.859Z,10.70
2022-11-28T11:59:18.548Z,9.10
2022-11-28T12:29:42.199Z,7.60
2022-11-28T12:59:56.108Z,7.20
2022-11-28T13:30:12.298Z,7.30
2022-11-28T14:00:27.920Z,7.30
2022-11-28T14:30:41.970Z,6.30
2022-11-28T15:00:58.037Z,5.60
2022-11-28T15:31:07.562Z,5.00
2022-11-28T16:01:18.006Z,3.80
2022-11-28T16:31:26.640Z,3.40
2022-11-28T17:01:35.663Z,2.20
2022-11-28T17:31:46.946Z,1.50
2022-11-28T18:01:55.277Z,0.90
2022-11-28T18:32:12.806Z,0.60
2022-11-28T19:02:21.234Z,0.30
2022-11-28T19:32:29.777Z,0.10
2022-11-28T20:02:45.657Z,-0.20
2022-11-28T20:32:55.959Z,0.00
2022-11-28T21:03:04.279Z,-0.20
2022-11-28T21:33:15.080Z,-0.40
2022-11-28T22:03:23.935Z,-0.60
2022-11-28T22:33:32.656Z,-0.80
2022-11-28T23:03:43.151Z,-0.60
2022-11-28T23:33:55.544Z,-0.90
